Time;durP1;ratioP1;P1;durP2;ratioP2;P2;SDS_P1;SDS_P2;PMS_P1;PMS_P2;Temp;Humidity;BMP_temperature;BMP_pressure;BME280_temperature;BME280_humidity;BME280_pressure;Samples;Min_cycle;Max_cycle;Signal;HPM_P1;HPM_P2
2022/05/10 00:03:34;;;;;;;8.13;6.75;;;;;;;10.80;70.69;101094.47;2989891;77;21060;-86
2022/05/10 00:07:37;;;;;;;13.58;7.17;;;;;;;10.66;71.37;101097.64;3002840;78;21589;-86
2022/05/10 00:11:39;;;;;;;9.65;6.97;;;;;;;10.66;71.18;101084.33;3007813;78;21091;-86
2022/05/10 00:15:42;;;;;;;10.40;6.50;;;;;;;10.71;71.09;101087.52;3008298;78;21049;-86
2022/05/10 00:19:43;;;;;;;15.58;9.83;;;;;;;10.75;70.99;101085.97;3019390;77;21004;-86
2022/05/10 00:23:44;;;;;;;15.38;7.08;;;;;;;10.73;70.78;101080.77;3006997;78;21275;-85
2022/05/10 00:27:45;;;;;;;12.63;7.90;;;;;;;10.73;70.49;101079.91;3008742;78;21141;-86
2022/05/10 00:31:46;;;;;;;17.20;7.78;;;;;;;10.71;70.40;101072.05;2965630;78;21011;-85
2022/05/10 00:35:47;;;;;;;22.58;8.55;;;;;;;10.71;70.26;101066.23;2986065;77;20995;-86
2022/05/10 00:39:49;;;;;;;12.53;8.43;;;;;;;10.69;70.31;101066.82;2991849;78;21019;-86
2022/05/10 00:43:55;;;;;;;10.63;7.60;;;;;;;10.59;70.17;101064.41;2964118;77;21074;-86
2022/05/10 00:48:14;;;;;;;17.07;7.45;;;;;;;10.48;70.71;101059.01;3001187;78;21026;-86
2022/05/10 00:52:54;;;;;;;15.10;8.15;;;;;;;10.37;71.25;101051.24;2995739;78;21365;-86
2022/05/10 00:57:29;;;;;;;13.22;8.55;;;;;;;10.27;72.01;101048.86;3012918;78;20959;-86
2022/05/10 01:01:34;;;;;;;28.85;15.00;;;;;;;10.20;72.11;101041.78;3032903;77;21023;-86
2022/05/10 01:06:03;;;;;;;28.00;17.95;;;;;;;10.10;72.10;101038.89;3001951;78;21699;-86
2022/05/10 01:10:13;;;;;;;18.00;10.60;;;;;;;10.07;72.09;101040.44;3000523;77;21018;-85
2022/05/10 01:14:23;;;;;;;12.88;8.68;;;;;;;10.07;72.07;101038.24;3059236;77;21055;-86
2022/05/10 01:18:24;;;;;;;10.28;7.17;;;;;;;9.98;71.61;101034.39;3057586;77;21048;-86
2022/05/10 01:23:02;;;;;;;7.33;6.15;;;;;;;9.95;71.18;101034.61;3012012;78;20979;-86
2022/05/10 01:27:18;;;;;;;11.65;8.13;;;;;;;9.86;70.54;101030.30;3011947;77;20983;-86
2022/05/10 01:31:37;;;;;;;10.72;7.67;;;;;;;9.80;70.58;101032.52;3018799;77;21094;-86
2022/05/10 01:35:45;;;;;;;10.55;7.60;;;;;;;9.66;70.78;101022.31;3008671;77;21050;-86
2022/05/10 01:39:58;;;;;;;12.23;7.60;;;;;;;9.59;70.86;101030.33;3002815;77;20975;-85
2022/05/10 01:44:32;;;;;;;10.72;6.58;;;;;;;9.51;71.26;101021.99;2981693;78;21546;-86
2022/05/10 01:48:36;;;;;;;12.50;7.10;;;;;;;9.44;72.10;101020.24;3015053;78;21003;-85
2022/05/10 01:53:13;;;;;;;9.73;7.17;;;;;;;9.35;72.38;101019.50;3005482;77;21027;-86
2022/05/10 01:57:16;;;;;;;;;;;;;;;9.24;73.38;101018.41;2993136;78;21089;-86
2022/05/10 02:01:31;;;;;;;14.23;9.40;;;;;;;9.20;74.37;101018.20;3013068;77;20124;-86
2022/05/10 02:05:41;;;;;;;8.70;7.85;;;;;;;9.08;75.33;101014.54;2985906;77;21006;-85
2022/05/10 02:09:47;;;;;;;10.13;7.92;;;;;;;9.02;75.78;101010.96;3010377;77;21042;-86
2022/05/10 02:14:08;;;;;;;14.00;9.35;;;;;;;8.96;75.59;101005.56;3017806;77;21098;-85
2022/05/10 02:18:17;;;;;;;14.80;8.48;;;;;;;8.82;76.59;101009.09;3009389;78;21514;-86
2022/05/10 02:22:30;;;;;;;14.95;8.63;;;;;;;8.65;77.17;101006.19;3003586;77;21030;-85
2022/05/10 02:26:52;;;;;;;13.65;7.80;;;;;;;8.59;77.33;101002.57;3022017;77;21067;-86
2022/05/10 02:30:57;;;;;;;14.18;8.83;;;;;;;8.57;77.01;100996.05;3008157;78;21475;-86
2022/05/10 02:35:03;;;;;;;19.45;12.58;;;;;;;8.49;77.18;100985.51;3004509;78;21038;-86
2022/05/10 02:39:04;;;;;;;17.60;11.88;;;;;;;8.52;78.02;100982.70;3011002;77;21550;-86
2022/05/10 02:43:05;;;;;;;20.80;12.75;;;;;;;8.54;78.11;100979.47;3004967;77;21073;-86
2022/05/10 02:47:09;;;;;;;17.52;12.45;;;;;;;8.63;77.89;100976.23;3026841;77;21512;-86
2022/05/10 02:51:10;;;;;;;20.82;13.85;;;;;;;8.78;77.48;100981.06;3022317;77;20979;-86
2022/05/10 02:55:20;;;;;;;20.10;13.53;;;;;;;8.82;77.78;100968.44;2964978;77;40365;-85
2022/05/10 02:59:29;;;;;;;15.95;10.32;;;;;;;8.85;77.74;100970.92;2988869;78;21035;-86
2022/05/10 03:03:32;;;;;;;15.50;10.13;;;;;;;8.91;77.57;100973.17;2990496;77;21506;-86
2022/05/10 03:07:33;;;;;;;14.33;10.70;;;;;;;8.98;77.48;100973.64;2998512;77;21010;-86
2022/05/10 03:11:35;;;;;;;15.15;10.93;;;;;;;9.06;77.59;100973.98;2958862;79;21030;-86
2022/05/10 03:15:36;;;;;;;19.32;9.55;;;;;;;9.17;77.54;100977.75;2982021;79;21069;-86
2022/05/10 03:19:39;;;;;;;15.05;11.15;;;;;;;9.26;77.26;100974.03;2977387;79;21031;-86
2022/05/10 03:23:40;;;;;;;14.50;10.38;;;;;;;9.32;77.00;100975.89;2981836;79;21053;-88
2022/05/10 03:27:42;;;;;;;13.43;9.03;;;;;;;9.31;77.07;100971.05;2979878;79;20978;-87
2022/05/10 03:31:44;;;;;;;9.88;7.45;;;;;;;9.31;76.95;100967.06;2979310;79;20998;-85
2022/05/10 03:35:45;;;;;;;9.90;7.78;;;;;;;9.31;76.79;100969.72;2993264;79;21554;-87
2022/05/10 03:39:46;;;;;;;11.43;9.93;;;;;;;9.28;76.68;100962.83;2994990;79;21606;-88
2022/05/10 03:43:47;;;;;;;8.88;7.97;;;;;;;9.35;76.83;100965.94;2997942;79;21465;-88
2022/05/10 03:47:50;;;;;;;15.48;9.10;;;;;;;9.44;76.61;100968.46;2982256;79;21061;-88
2022/05/10 03:51:54;;;;;;;13.98;7.80;;;;;;;9.47;76.45;100964.27;2979407;79;21065;-88
2022/05/10 03:55:54;;;;;;;12.37;8.03;;;;;;;9.50;76.47;100958.75;2967086;79;21026;-88
2022/05/10 03:59:55;;;;;;;14.13;7.25;;;;;;;9.57;76.39;100957.38;2914300;78;21028;-89
2022/05/10 04:03:57;;;;;;;11.20;7.17;;;;;;;9.64;76.27;100964.45;2913433;81;20993;-88
2022/05/10 04:07:58;;;;;;;9.43;7.72;;;;;;;9.74;76.65;100966.02;2918039;80;21099;-89
2022/05/10 04:11:59;;;;;;;9.88;7.72;;;;;;;10.14;77.42;100957.97;2930185;80;21023;-86
2022/05/10 04:16:00;;;;;;;14.85;10.08;;;;;;;10.71;77.65;100956.30;2927690;80;21657;-85
2022/05/10 04:20:02;;;;;;;11.63;7.65;;;;;;;11.79;75.77;100954.14;2927692;80;21024;-85
2022/05/10 04:24:04;;;;;;;11.78;8.28;;;;;;;12.82;71.81;100957.70;2944198;79;21050;-85
2022/05/10 04:28:06;;;;;;;11.15;7.22;;;;;;;13.50;70.37;100961.19;2928644;80;21032;-86
2022/05/10 04:32:08;;;;;;;12.10;7.80;;;;;;;14.55;67.93;100959.41;2928485;80;21527;-86
2022/05/10 04:36:09;;;;;;;7.45;6.65;;;;;;;14.81;64.39;100962.96;2928426;80;21544;-86
2022/05/10 04:44:31;;;;;;;12.35;9.43;;;;;;;15.81;63.54;100966.39;2928720;79;21031;-86
2022/05/10 04:48:33;;;;;;;22.73;14.78;;;;;;;16.77;61.66;100969.06;2929265;80;21079;-86
2022/05/10 04:52:35;;;;;;;12.23;9.53;;;;;;;17.49;59.02;100971.87;2929378;80;21008;-86
2022/05/10 04:56:36;;;;;;;18.62;13.65;;;;;;;17.78;57.42;100973.91;2915459;81;21050;-86
2022/05/10 05:00:38;;;;;;;15.08;11.83;;;;;;;17.95;58.10;100967.66;2930950;78;20965;-85
2022/05/10 05:04:39;;;;;;;13.70;10.30;;;;;;;18.26;57.23;100974.44;2930229;81;21024;-86
2022/05/10 05:08:40;;;;;;;14.45;9.83;;;;;;;18.64;57.47;100962.83;2929694;80;21011;-85
2022/05/10 05:12:42;;;;;;;10.98;9.60;;;;;;;19.23;56.47;100967.40;2930358;80;21036;-86
2022/05/10 05:16:43;;;;;;;15.18;11.57;;;;;;;19.66;56.09;100963.73;2930224;80;21008;-85
2022/05/10 05:20:44;;;;;;;22.62;20.32;;;;;;;20.04;55.43;100962.69;2930018;80;21066;-86
2022/05/10 05:24:45;;;;;;;18.70;16.73;;;;;;;20.19;54.51;100965.54;2930278;81;21017;-85
2022/05/10 05:28:46;;;;;;;15.60;10.95;;;;;;;20.21;54.25;100962.65;2924230;79;21046;-86
2022/05/10 05:32:47;;;;;;;11.30;10.13;;;;;;;20.13;54.50;100962.16;2907142;81;21003;-86
2022/05/10 05:37:32;;;;;;;13.58;9.88;;;;;;;20.02;53.89;100960.66;2930313;80;21027;-86
2022/05/10 05:40:51;;;;;;;18.57;11.85;;;;;;;19.83;55.26;100959.16;2973851;78;21042;-85
2022/05/10 05:44:52;;;;;;;14.58;9.08;;;;;;;19.76;55.07;100960.34;2986670;78;21054;-86
2022/05/10 05:48:58;;;;;;;14.85;11.53;;;;;;;19.52;55.28;100963.39;2977816;78;21011;-86
2022/05/10 05:52:58;;;;;;;12.95;9.45;;;;;;;19.37;56.15;100953.78;2963321;79;20971;-86
2022/05/10 05:57:04;;;;;;;12.60;10.23;;;;;;;19.67;56.14;100951.93;2974088;78;21011;-85
2022/05/10 06:01:15;;;;;;;13.45;9.43;;;;;;;20.02;55.53;100942.28;2963679;78;21617;-86
2022/05/10 06:05:18;;;;;;;13.10;9.60;;;;;;;20.29;55.10;100943.73;2967470;79;21038;-86
2022/05/10 06:09:22;;;;;;;14.87;10.18;;;;;;;20.45;54.84;100950.09;2980342;79;21054;-85
2022/05/10 06:13:24;;;;;;;11.78;8.83;;;;;;;20.59;54.74;100949.34;2972493;78;21003;-86
2022/05/10 06:17:25;;;;;;;13.62;9.23;;;;;;;20.73;53.54;100940.98;2956965;79;21031;-85
2022/05/10 06:21:26;;;;;;;18.73;9.75;;;;;;;20.77;54.42;100939.64;2971119;79;20979;-85
2022/05/10 06:25:28;;;;;;;13.00;8.93;;;;;;;20.90;54.18;100937.73;2921386;79;20959;-85
2022/05/10 06:29:29;;;;;;;14.00;9.45;;;;;;;20.93;52.71;100930.61;2930889;81;21035;-86
2022/05/10 06:33:30;;;;;;;13.15;9.33;;;;;;;21.01;52.72;100925.66;2940325;79;21526;-85
2022/05/10 06:41:51;;;;;;;24.92;10.10;;;;;;;21.00;53.22;100923.12;2978493;78;21073;-85
2022/05/10 06:45:53;;;;;;;11.33;9.00;;;;;;;20.88;53.65;100916.80;2930603;81;21098;-86
2022/05/10 06:49:55;;;;;;;12.85;9.53;;;;;;;20.89;53.29;100916.27;2931500;81;21020;-85
2022/05/10 06:53:56;;;;;;;12.60;9.48;;;;;;;20.74;53.55;100921.08;2930630;80;21028;-85
2022/05/10 06:58:01;;;;;;;18.30;9.50;;;;;;;20.44;55.40;100913.27;2930845;81;21841;-86
2022/05/10 07:02:01;;;;;;;11.83;8.10;;;;;;;20.55;56.54;100904.78;2977363;78;21082;-85
2022/05/10 07:33:41;;;;;;;10.53;7.20;;;;;;;21.75;54.53;100885.52;3054744;76;22225;-85
2022/05/10 07:37:43;;;;;;;13.35;7.08;;;;;;;21.81;55.09;100892.88;2998609;77;21022;-85
2022/05/10 07:41:44;;;;;;;11.15;7.42;;;;;;;21.59;55.63;100883.76;2992855;77;21046;-85
2022/05/10 07:45:50;;;;;;;10.30;8.73;;;;;;;21.85;54.99;100883.89;3018426;77;21025;-85
2022/05/10 07:49:51;;;;;;;8.45;6.58;;;;;;;22.09;54.35;100875.47;3018651;77;21006;-85
2022/05/10 07:53:53;;;;;;;9.35;7.95;;;;;;;22.30;53.99;100867.08;3010509;77;21003;-85
2022/05/10 07:57:54;;;;;;;14.05;7.40;;;;;;;22.47;52.97;100862.30;2995720;77;21139;-85
2022/05/10 08:01:55;;;;;;;10.60;8.48;;;;;;;22.59;52.84;100861.28;2998116;78;21019;-85
2022/05/10 08:05:59;;;;;;;17.10;8.08;;;;;;;22.72;52.17;100861.13;3030848;76;21077;-85
2022/05/10 08:10:00;;;;;;;12.25;9.10;;;;;;;22.69;51.92;100865.05;3012517;77;21046;-85
2022/05/10 08:14:01;;;;;;;10.95;6.20;;;;;;;22.77;53.37;100864.94;3018822;77;21022;-85
2022/05/10 08:18:03;;;;;;;13.13;7.92;;;;;;;22.99;52.61;100864.09;3018967;77;20978;-85
2022/05/10 08:22:04;;;;;;;8.88;7.05;;;;;;;22.94;52.06;100857.37;3007482;77;20986;-85
2022/05/10 08:26:08;;;;;;;6.55;5.87;;;;;;;23.02;52.39;100847.45;3018301;77;20990;-85
2022/05/10 08:30:11;;;;;;;9.15;5.80;;;;;;;23.11;52.61;100850.33;2997656;77;21037;-85
2022/05/10 08:34:12;;;;;;;7.53;5.60;;;;;;;23.08;50.84;100853.44;3033557;77;21033;-84
2022/05/10 08:38:14;;;;;;;7.92;5.10;;;;;;;23.12;50.41;100849.30;3030355;77;21001;-85
2022/05/10 08:42:23;;;;;;;13.38;6.55;;;;;;;23.13;50.86;100841.47;3000206;77;21019;-85
2022/05/10 08:46:32;;;;;;;8.18;5.08;;;;;;;23.16;51.43;100835.66;3032565;77;21055;-85
2022/05/10 08:50:37;;;;;;;8.13;4.35;;;;;;;23.37;50.66;100833.97;3031258;77;21038;-85
2022/05/10 08:54:41;;;;;;;13.20;5.07;;;;;;;23.29;48.45;100836.84;2989934;78;21010;-85
2022/05/10 08:59:24;;;;;;;7.03;4.42;;;;;;;23.38;51.05;100823.42;2985892;78;21082;-85
2022/05/10 09:03:42;;;;;;;5.08;3.85;;;;;;;23.45;49.55;100821.62;3017616;77;21081;-84
2022/05/10 09:08:08;;;;;;;7.08;4.58;;;;;;;23.61;46.71;100818.28;3015421;76;21040;-84
2022/05/10 09:12:22;;;;;;;5.75;3.65;;;;;;;23.71;46.93;100815.20;3046418;76;20973;-85
2022/05/10 09:16:23;;;;;;;9.63;4.55;;;;;;;23.62;47.55;100813.16;3015821;77;20999;-85
2022/05/10 09:20:25;;;;;;;7.92;3.45;;;;;;;23.64;48.95;100815.16;3023943;77;21089;-85
2022/05/10 09:24:52;;;;;;;8.40;4.85;;;;;;;23.70;48.95;100810.81;2995038;77;21129;-85
2022/05/10 09:29:31;;;;;;;7.55;3.45;;;;;;;23.81;47.69;100807.00;3009800;77;21037;-85
2022/05/10 09:38:08;;;;;;;9.70;5.50;;;;;;;23.76;47.45;100794.53;3011918;77;21096;-85
2022/05/10 09:42:13;;;;;;;16.00;5.35;;;;;;;23.80;47.65;100799.05;2995884;78;21005;-85
2022/05/10 09:46:23;;;;;;;11.35;4.78;;;;;;;23.95;47.55;100797.54;3003774;77;20998;-85
2022/05/10 09:50:41;;;;;;;11.88;5.40;;;;;;;24.07;47.18;100785.59;2990996;77;21074;-84
2022/05/10 09:54:44;;;;;;;7.50;4.17;;;;;;;24.16;47.55;100784.90;2959325;78;21029;-84
2022/05/10 09:59:05;;;;;;;13.78;4.28;;;;;;;24.24;47.57;100779.30;2994277;77;21620;-85
2022/05/10 10:03:07;;;;;;;17.40;5.00;;;;;;;24.21;47.51;100776.99;3009138;78;21031;-85
2022/05/10 10:07:22;;;;;;;10.08;4.45;;;;;;;24.22;48.18;100770.52;2979761;78;21025;-85
2022/05/10 10:11:31;;;;;;;56.58;10.93;;;;;;;24.34;47.04;100766.14;3018966;77;21058;-85
2022/05/10 10:15:42;;;;;;;19.00;4.67;;;;;;;24.44;48.13;100764.91;2985825;77;21060;-85
2022/05/10 10:19:49;;;;;;;6.75;2.83;;;;;;;24.45;47.13;100769.31;2998336;78;20970;-85
2022/05/10 10:23:57;;;;;;;4.70;2.50;;;;;;;24.56;46.41;100757.80;2998499;77;21026;-85
2022/05/10 10:28:04;;;;;;;6.92;2.87;;;;;;;24.66;46.84;100752.81;3018329;77;21021;-84
2022/05/10 10:32:20;;;;;;;6.42;3.55;;;;;;;24.76;45.85;100747.49;3012607;77;21068;-85
2022/05/10 10:36:51;;;;;;;4.30;3.47;;;;;;;24.75;46.65;100734.44;2986009;78;20986;-84
2022/05/10 10:41:00;;;;;;;5.08;3.40;;;;;;;24.76;47.59;100729.81;2956049;78;20967;-85
2022/05/10 10:45:07;;;;;;;3.35;3.02;;;;;;;24.88;45.51;100732.23;2970520;78;21066;-84
2022/05/10 10:49:13;;;;;;;4.58;2.72;;;;;;;25.04;46.21;100721.96;2970382;79;20995;-85
2022/05/10 10:53:14;;;;;;;7.25;3.95;;;;;;;25.13;44.83;100716.59;2970301;80;21047;-84
2022/05/10 10:57:36;;;;;;;6.47;2.72;;;;;;;25.20;44.33;100708.42;2970430;78;21031;-86
2022/05/10 11:02:08;;;;;;;6.03;3.20;;;;;;;25.23;44.97;100706.62;2970060;78;21175;-85
2022/05/10 11:06:28;;;;;;;9.13;3.67;;;;;;;25.25;44.10;100697.72;2969848;78;21019;-85
2022/05/10 11:10:57;;;;;;;3.72;3.12;;;;;;;25.26;45.13;100690.41;2970279;80;21010;-85
2022/05/10 11:15:13;;;;;;;7.20;3.45;;;;;;;25.33;46.03;100677.59;2999380;77;21015;-85
2022/05/10 11:19:40;;;;;;;;;;;;;;;25.38;45.72;100666.92;2971670;78;20961;-85
2022/05/10 11:23:50;;;;;;;5.90;4.08;;;;;;;25.42;46.68;100664.07;2961709;79;20122;-84
2022/05/10 11:28:23;;;;;;;9.28;4.30;;;;;;;25.38;47.32;100661.47;2980585;78;21051;-84
2022/05/10 11:32:54;;;;;;;4.75;3.45;;;;;;;25.52;45.55;100659.02;2857506;82;20976;-85
2022/05/10 11:36:59;;;;;;;5.45;3.90;;;;;;;25.60;47.55;100653.03;2848955;82;20990;-85
2022/05/10 11:41:10;;;;;;;6.37;3.98;;;;;;;25.73;44.60;100650.22;2904492;80;21033;-85
2022/05/10 11:45:41;;;;;;;4.28;3.62;;;;;;;25.85;45.95;100639.49;2907513;80;20991;-85
2022/05/10 11:49:59;;;;;;;8.05;3.58;;;;;;;25.98;45.85;100637.20;2866125;79;21582;-84
2022/05/10 11:54:12;;;;;;;4.78;3.45;;;;;;;25.91;44.34;100631.79;2869573;81;20961;-85
2022/05/10 11:58:15;;;;;;;4.47;3.60;;;;;;;25.95;44.13;100628.11;2905877;80;21015;-85
2022/05/10 12:02:33;;;;;;;8.60;3.33;;;;;;;26.02;45.65;100617.98;2956422;80;21538;-85
2022/05/10 12:06:36;;;;;;;3.42;2.83;;;;;;;26.15;46.10;100621.68;2940684;80;21041;-85
2022/05/10 12:10:43;;;;;;;7.65;3.83;;;;;;;26.26;44.67;100612.80;2918296;80;21101;-85
2022/05/10 12:24:11;;;;;;;7.72;4.25;;;;;;;26.47;44.30;100590.27;2907828;80;21431;-85
2022/05/10 12:28:35;;;;;;;7.05;2.70;;;;;;;26.50;43.59;100589.81;2932464;80;21011;-85
2022/05/10 12:32:41;;;;;;;4.70;3.72;;;;;;;26.61;45.51;100581.42;2930861;80;21086;-85
2022/05/10 12:36:43;;;;;;;7.12;3.55;;;;;;;26.71;44.73;100580.38;2910387;80;21031;-85
2022/05/10 12:40:54;;;;;;;4.58;3.22;;;;;;;26.65;44.21;100574.48;2897119;79;20998;-84
2022/05/10 12:45:37;;;;;;;5.62;3.85;;;;;;;26.64;44.76;100566.81;2948002;79;21253;-84
2022/05/10 12:49:49;;;;;;;5.10;3.92;;;;;;;26.62;43.86;100556.66;2916864;77;21012;-84
2022/05/10 12:53:56;;;;;;;4.72;3.40;;;;;;;26.76;44.76;100548.34;2911092;81;21042;-84
2022/05/10 12:58:03;;;;;;;6.80;3.65;;;;;;;26.74;44.65;100538.19;2912062;80;21119;-84
2022/05/10 13:02:08;;;;;;;4.37;3.55;;;;;;;26.74;44.58;100534.09;2912032;80;21010;-85
2022/05/10 13:06:37;;;;;;;6.00;3.42;;;;;;;26.73;44.87;100531.06;2933264;81;21071;-85
2022/05/10 13:10:39;;;;;;;6.37;3.80;;;;;;;26.70;45.90;100527.40;2911581;81;21049;-85
2022/05/10 13:14:52;;;;;;;26.87;16.67;;;;;;;26.73;44.65;100518.23;2910685;80;21049;-85
2022/05/10 13:18:54;;;;;;;13.10;7.80;;;;;;;26.75;45.64;100509.30;2918909;80;21003;-83
2022/05/10 13:23:02;;;;;;;8.13;4.78;;;;;;;26.84;45.42;100501.63;2909945;80;20959;-83
2022/05/10 13:27:05;;;;;;;46.18;23.95;;;;;;;26.84;44.65;100498.09;2933364;80;20960;-84
2022/05/10 13:31:17;;;;;;;8.80;4.28;;;;;;;26.91;46.06;100496.94;2933786;80;21543;-84
2022/05/10 13:35:26;;;;;;;10.48;3.92;;;;;;;27.06;44.76;100492.98;2908505;80;21033;-84
2022/05/10 13:39:30;;;;;;;4.40;3.30;;;;;;;27.30;47.93;100488.97;2880674;80;20969;-84
2022/05/10 13:43:43;;;;;;;9.48;3.33;;;;;;;27.54;45.89;100480.89;2912270;81;21002;-84
2022/05/10 13:47:48;;;;;;;8.55;3.15;;;;;;;27.64;44.75;100475.15;2903749;80;21066;-84
2022/05/10 13:51:52;;;;;;;6.25;4.37;;;;;;;27.67;44.60;100476.56;2927210;81;21019;-83
2022/05/10 13:55:55;;;;;;;6.17;3.20;;;;;;;27.64;45.31;100468.84;2919086;79;20937;-83
2022/05/10 14:00:01;;;;;;;9.20;4.42;;;;;;;27.57;44.29;100464.03;2889919;80;21299;-85
2022/05/10 14:04:07;;;;;;;5.37;3.55;;;;;;;27.42;44.32;100458.44;2936904;80;21043;-85
2022/05/10 14:08:24;;;;;;;9.90;3.47;;;;;;;27.43;43.87;100459.28;2891298;80;20990;-84
2022/05/10 14:12:36;;;;;;;22.20;6.10;;;;;;;27.57;45.35;100445.72;2915835;80;21449;-88
2022/05/10 14:16:40;;;;;;;4.95;3.90;;;;;;;27.59;45.28;100435.94;2883890;80;21011;-87
2022/05/10 14:20:48;;;;;;;6.57;3.50;;;;;;;27.59;44.36;100430.47;2907758;79;21008;-89
2022/05/10 14:24:52;;;;;;;6.00;3.72;;;;;;;27.70;45.76;100424.72;2897407;80;21312;-88
2022/05/10 14:28:54;;;;;;;6.67;4.22;;;;;;;27.65;44.94;100413.13;2881944;80;21359;-87
2022/05/10 14:32:55;;;;;;;42.95;9.23;;;;;;;27.41;45.68;100407.61;2888998;81;20996;-85
2022/05/10 14:36:57;;;;;;;4.65;3.30;;;;;;;27.41;46.60;100400.79;2935139;80;21002;-85
2022/05/10 14:41:02;;;;;;;5.85;3.62;;;;;;;27.44;47.05;100395.40;2904795;80;21023;-86
2022/05/10 14:45:32;;;;;;;10.25;4.90;;;;;;;27.36;45.71;100393.84;2922658;80;21030;-88
2022/05/10 14:49:43;;;;;;;5.67;3.47;;;;;;;27.35;44.89;100385.35;2926120;80;21027;-88
2022/05/10 14:53:54;;;;;;;5.10;3.37;;;;;;;27.21;44.90;100380.09;2933937;80;20999;-88
2022/05/10 14:58:00;;;;;;;10.93;4.10;;;;;;;26.89;45.75;100380.91;2938769;80;21018;-85
2022/05/10 15:02:09;;;;;;;4.47;3.55;;;;;;;26.96;45.36;100373.45;2939706;80;21042;-88
2022/05/10 15:06:15;;;;;;;8.00;3.42;;;;;;;27.10;47.62;100368.61;2928906;80;21034;-87
2022/05/10 15:10:18;;;;;;;8.40;4.08;;;;;;;27.17;47.15;100367.14;2910665;81;21033;-87
2022/05/10 15:14:19;;;;;;;6.40;4.08;;;;;;;27.15;46.42;100360.57;2923627;80;21019;-87
2022/05/10 15:22:54;;;;;;;5.22;3.10;;;;;;;26.84;46.74;100352.92;2931541;80;21035;-85
2022/05/10 15:26:55;;;;;;;9.80;4.53;;;;;;;26.61;47.46;100349.56;2882586;81;21002;-85
2022/05/10 15:30:57;;;;;;;12.55;3.83;;;;;;;26.56;47.14;100341.25;2908928;80;21030;-87
2022/05/10 15:34:58;;;;;;;5.60;3.17;;;;;;;26.52;47.47;100340.88;2920489;79;21042;-86
2022/05/10 15:38:59;;;;;;;6.20;3.47;;;;;;;26.60;48.05;100336.99;2898651;80;20996;-88
2022/05/10 15:43:01;;;;;;;5.65;3.30;;;;;;;26.75;48.34;100329.77;2895899;80;21113;-87
2022/05/10 15:47:04;;;;;;;18.30;4.85;;;;;;;26.70;46.90;100328.25;2870107;81;21873;-88
2022/05/10 15:51:05;;;;;;;7.25;4.15;;;;;;;26.55;47.70;100321.34;2905726;81;21015;-87
2022/05/10 15:55:08;;;;;;;5.33;3.42;;;;;;;26.49;48.79;100319.00;2885311;81;21045;-88
2022/05/10 15:59:10;;;;;;;8.53;4.10;;;;;;;26.46;48.72;100311.30;2910646;80;21030;-88
2022/05/10 16:03:12;;;;;;;6.25;4.42;;;;;;;26.47;49.00;100313.47;2911026;81;21030;-88
2022/05/10 16:07:15;;;;;;;5.20;3.83;;;;;;;26.35;50.55;100303.36;2919984;80;21607;-85
2022/05/10 16:11:16;;;;;;;10.10;3.98;;;;;;;26.21;49.85;100301.32;2918366;79;21023;-87
2022/05/10 16:15:17;;;;;;;12.03;4.78;;;;;;;26.06;50.47;100292.70;2947385;80;21011;-87
2022/05/10 16:19:18;;;;;;;10.05;4.33;;;;;;;25.94;50.49;100292.09;2939478;79;20996;-87
2022/05/10 16:23:20;;;;;;;31.37;6.75;;;;;;;25.89;50.99;100290.59;2948075;79;21003;-87
2022/05/10 16:31:42;;;;;;;3.72;3.00;;;;;;;25.68;51.72;100282.88;2947756;80;21557;-87
2022/05/10 16:35:43;;;;;;;7.78;6.70;;;;;;;25.67;52.47;100282.03;2947270;80;21035;-87
2022/05/10 16:39:45;;;;;;;12.88;5.05;;;;;;;25.74;52.78;100276.52;2942075;80;20955;-85
2022/05/10 16:43:46;;;;;;;17.62;6.25;;;;;;;25.70;52.26;100276.12;2885616;80;21011;-88
2022/05/10 16:47:47;;;;;;;11.12;4.55;;;;;;;25.67;53.01;100275.22;2946694;80;20999;-86
2022/05/10 16:51:48;;;;;;;15.20;6.50;;;;;;;25.63;52.76;100274.02;2946083;80;20983;-86
2022/05/10 16:55:50;;;;;;;11.53;5.53;;;;;;;25.50;53.12;100264.92;2909901;80;21001;-87
2022/05/10 16:59:51;;;;;;;24.43;8.13;;;;;;;25.43;52.95;100267.37;2906995;80;21026;-85
2022/05/10 17:03:53;;;;;;;15.30;7.42;;;;;;;25.28;53.06;100266.38;2840000;81;21018;-85
2022/05/10 17:07:55;;;;;;;19.80;8.68;;;;;;;25.08;53.81;100257.36;2913533;81;21015;-86
2022/05/10 17:11:56;;;;;;;10.18;6.53;;;;;;;24.89;54.26;100257.81;2914081;81;21471;-85
2022/05/10 17:15:57;;;;;;;9.75;7.72;;;;;;;24.70;55.01;100265.06;2913768;81;21007;-86
2022/05/10 17:19:58;;;;;;;34.95;25.17;;;;;;;24.48;55.20;100260.48;2902640;80;21006;-85
2022/05/10 17:24:00;;;;;;;25.05;18.50;;;;;;;24.29;55.76;100261.74;2902266;81;21003;-84
2022/05/10 17:28:18;;;;;;;15.83;8.35;;;;;;;24.13;56.10;100263.60;2900185;80;21937;-89
2022/05/10 17:32:11;;;;;;;7.95;6.22;;;;;;;23.93;56.35;100261.77;2907250;81;21016;-88
2022/05/10 17:36:14;;;;;;;10.90;5.83;;;;;;;23.67;56.05;100259.47;2907962;78;21019;-90
2022/05/10 17:40:17;;;;;;;17.73;6.87;;;;;;;23.45;56.42;100257.02;2940820;79;20987;-89
2022/05/10 17:44:18;;;;;;;14.65;8.83;;;;;;;23.22;56.06;100256.08;2947330;79;21045;-90
2022/05/10 17:48:19;;;;;;;15.30;9.20;;;;;;;22.99;56.51;100251.08;2922597;79;21002;-88
2022/05/10 17:52:20;;;;;;;16.12;11.33;;;;;;;22.66;57.07;100247.31;2905605;81;21004;-89
2022/05/10 17:56:25;;;;;;;9.28;7.10;;;;;;;22.42;57.41;100254.14;2930200;81;21066;-88
2022/05/10 18:00:26;;;;;;;61.68;13.28;;;;;;;22.25;58.01;100253.16;2909852;80;21009;-87
2022/05/10 18:04:30;;;;;;;77.97;18.05;;;;;;;22.05;58.75;100246.30;2932752;81;21011;-88
2022/05/10 18:08:30;;;;;;;11.60;6.95;;;;;;;21.83;59.38;100255.41;2931176;81;21590;-90
2022/05/10 18:12:32;;;;;;;11.48;7.62;;;;;;;21.55;60.26;100247.31;2881030;80;21022;-88
2022/05/10 18:16:33;;;;;;;9.28;5.60;;;;;;;21.31;60.51;100246.72;2908795;81;21042;-89
2022/05/10 18:20:35;;;;;;;12.85;6.10;;;;;;;21.23;60.73;100255.84;2806748;80;21008;-91
2022/05/10 18:24:36;;;;;;;62.85;15.48;;;;;;;21.12;61.03;100245.56;2922739;81;21050;-91
2022/05/10 18:28:37;;;;;;;48.58;12.43;;;;;;;21.00;61.27;100253.87;2910781;80;21075;-90
2022/05/10 18:32:39;;;;;;;23.67;6.17;;;;;;;20.92;61.50;100249.44;2905772;80;21106;-91
2022/05/10 18:36:40;;;;;;;15.93;5.70;;;;;;;20.82;61.75;100250.63;2876116;80;21030;-91
2022/05/10 18:40:43;;;;;;;10.20;6.20;;;;;;;20.71;61.97;100247.58;2958116;79;21491;-91
2022/05/10 18:44:44;;;;;;;12.50;5.28;;;;;;;20.57;62.43;100249.33;2889750;80;21005;-90
2022/05/10 18:48:45;;;;;;;7.30;5.12;;;;;;;20.42;62.55;100250.21;2808346;81;21026;-90
2022/05/10 18:52:47;;;;;;;18.73;9.15;;;;;;;20.31;62.72;100256.95;2930395;80;21008;-89
2022/05/10 18:56:51;;;;;;;28.47;9.68;;;;;;;20.19;63.42;100253.06;2945561;80;20968;-90
2022/05/10 19:00:52;;;;;;;15.45;8.43;;;;;;;20.07;63.36;100261.67;2944977;79;21405;-87
2022/05/10 19:04:53;;;;;;;79.47;19.30;;;;;;;19.97;63.50;100264.67;2945203;80;21062;-87
2022/05/10 19:08:55;;;;;;;30.55;11.97;;;;;;;19.86;64.13;100265.62;2827015;80;21574;-87
2022/05/10 19:12:56;;;;;;;18.67;9.05;;;;;;;19.74;64.27;100264.74;2899416;80;21027;-89
2022/05/10 19:16:59;;;;;;;19.77;9.25;;;;;;;19.62;64.50;100267.08;2944729;80;20978;-91
2022/05/10 19:21:00;;;;;;;9.78;6.90;;;;;;;19.52;64.38;100272.75;2896418;80;21548;-89
2022/05/10 19:25:03;;;;;;;24.10;7.85;;;;;;;19.41;64.41;100261.91;2944748;80;21564;-91
2022/05/10 19:29:05;;;;;;;10.85;7.70;;;;;;;19.32;64.49;100271.61;2908200;81;20994;-91
2022/05/10 19:33:07;;;;;;;11.63;7.55;;;;;;;19.20;64.70;100269.88;2858827;81;21057;-89
2022/05/10 19:37:12;;;;;;;15.70;9.18;;;;;;;19.09;64.89;100269.28;2928757;79;21161;-90
2022/05/10 19:41:11;;;;;;;13.08;6.72;;;;;;;19.07;64.59;100273.20;2948015;80;21606;-90
2022/05/10 19:45:14;;;;;;;19.77;7.75;;;;;;;19.01;65.01;100273.91;2905889;81;21088;-89
2022/05/10 19:49:15;;;;;;;8.20;6.55;;;;;;;18.90;65.27;100269.75;2911642;80;21014;-90
2022/05/10 19:53:16;;;;;;;9.08;5.37;;;;;;;18.79;65.61;100266.98;2894579;82;21026;-91
2022/05/10 19:57:17;;;;;;;10.38;5.83;;;;;;;18.67;65.99;100259.34;2941488;79;21007;-90
2022/05/10 20:05:39;;;;;;;12.35;6.40;;;;;;;18.45;67.15;100264.18;2920705;80;21085;-90